sensor_id;sensor_type;location;lat;lon;timestamp;pressure;altitude;pressure_sealevel;temperature;humidity
48530;BME280;34927;37.302;-121.982;2023-04-07T00:00:22;100999.0;;;24.34;30.36
48530;BME280;34927;37.302;-121.982;2023-04-07T00:01:26;101003.0;;;24.32;30.46
48530;BME280;34927;37.302;-121.982;2023-04-07T00:02:32;101000.0;;;24.38;30.50
48530;BME280;34927;37.302;-121.982;2023-04-07T00:03:36;101001.0;;;24.44;30.54
48530;BME280;34927;37.302;-121.982;2023-04-07T00:04:42;101005.0;;;24.42;30.46
48530;BME280;34927;37.302;-121.982;2023-04-07T00:05:47;101005.0;;;24.45;30.54
48530;BME280;34927;37.302;-121.982;2023-04-07T00:06:52;101005.0;;;24.54;30.34
48530;BME280;34927;37.302;-121.982;2023-04-07T00:07:57;101006.0;;;24.47;30.40
48530;BME280;34927;37.302;-121.982;2023-04-07T00:09:01;101006.0;;;24.42;30.47
48530;BME280;34927;37.302;-121.982;2023-04-07T00:10:07;101006.0;;;24.55;30.49
48530;BME280;34927;37.302;-121.982;2023-04-07T00:11:11;101004.0;;;24.44;30.77
48530;BME280;34927;37.302;-121.982;2023-04-07T00:12:16;101004.0;;;24.50;30.65
48530;BME280;34927;37.302;-121.982;2023-04-07T00:13:21;101003.0;;;24.52;30.75
48530;BME280;34927;37.302;-121.982;2023-04-07T00:14:26;101002.0;;;24.58;30.69
48530;BME280;34927;37.302;-121.982;2023-04-07T00:15:31;101001.0;;;24.43;30.95
48530;BME280;34927;37.302;-121.982;2023-04-07T00:16:36;100997.0;;;24.47;30.84
48530;BME280;34927;37.302;-121.982;2023-04-07T00:17:41;100998.0;;;24.59;30.71
48530;BME280;34927;37.302;-121.982;2023-04-07T00:18:47;100998.0;;;24.56;30.77
48530;BME280;34927;37.302;-121.982;2023-04-07T00:19:51;100999.0;;;24.53;30.84
48530;BME280;34927;37.302;-121.982;2023-04-07T00:20:56;101001.0;;;24.55;30.87
48530;BME280;34927;37.302;-121.982;2023-04-07T00:22:01;101003.0;;;24.64;30.71
48530;BME280;34927;37.302;-121.982;2023-04-07T00:23:07;101004.0;;;24.64;30.89
48530;BME280;34927;37.302;-121.982;2023-04-07T00:24:11;101008.0;;;24.65;30.72
48530;BME280;34927;37.302;-121.982;2023-04-07T00:25:17;101008.0;;;24.59;30.98
48530;BME280;34927;37.302;-121.982;2023-04-07T00:26:21;101008.0;;;24.54;31.10
48530;BME280;34927;37.302;-121.982;2023-04-07T00:27:27;101010.0;;;24.66;31.10
48530;BME280;34927;37.302;-121.982;2023-04-07T00:28:32;101008.0;;;24.53;31.28
48530;BME280;34927;37.302;-121.982;2023-04-07T00:29:37;101008.0;;;24.64;31.05
48530;BME280;34927;37.302;-121.982;2023-04-07T00:30:42;101007.0;;;24.57;31.16
48530;BME280;34927;37.302;-121.982;2023-04-07T00:31:47;101005.0;;;24.66;31.19
48530;BME280;34927;37.302;-121.982;2023-04-07T00:32:51;101003.0;;;24.73;31.09
48530;BME280;34927;37.302;-121.982;2023-04-07T00:33:57;101004.0;;;24.67;31.26
48530;BME280;34927;37.302;-121.982;2023-04-07T00:35:02;101001.0;;;24.65;31.24
48530;BME280;34927;37.302;-121.982;2023-04-07T00:36:07;101000.0;;;24.64;31.28
48530;BME280;34927;37.302;-121.982;2023-04-07T00:37:17;101002.0;;;24.69;31.11
48530;BME280;34927;37.302;-121.982;2023-04-07T00:38:21;101000.0;;;24.62;31.30
48530;BME280;34927;37.302;-121.982;2023-04-07T00:39:26;101001.0;;;24.69;31.15
48530;BME280;34927;37.302;-121.982;2023-04-07T00:40:32;101000.0;;;24.69;31.15
48530;BME280;34927;37.302;-121.982;2023-04-07T00:41:37;101002.0;;;24.68;31.24
48530;BME280;34927;37.302;-121.982;2023-04-07T00:42:41;101002.0;;;24.59;31.42
48530;BME280;34927;37.302;-121.982;2023-04-07T00:43:46;101006.0;;;24.53;31.51
48530;BME280;34927;37.302;-121.982;2023-04-07T00:44:52;101005.0;;;24.47;31.72
48530;BME280;34927;37.302;-121.982;2023-04-07T00:45:57;101008.0;;;24.50;31.75
48530;BME280;34927;37.302;-121.982;2023-04-07T00:47:02;101008.0;;;24.63;31.55
48530;BME280;34927;37.302;-121.982;2023-04-07T00:48:06;101010.0;;;24.66;31.71
48530;BME280;34927;37.302;-121.982;2023-04-07T00:49:11;101008.0;;;24.62;31.58
48530;BME280;34927;37.302;-121.982;2023-04-07T00:50:18;101006.0;;;24.65;31.57
48530;BME280;34927;37.302;-121.982;2023-04-07T00:51:22;101002.0;;;24.72;31.42
48530;BME280;34927;37.302;-121.982;2023-04-07T00:52:27;101000.0;;;24.64;31.57
48530;BME280;34927;37.302;-121.982;2023-04-07T00:53:31;100998.0;;;24.68;31.65
48530;BME280;34927;37.302;-121.982;2023-04-07T00:54:37;100998.0;;;24.75;31.71
48530;BME280;34927;37.302;-121.982;2023-04-07T00:55:41;100997.0;;;24.72;31.58
48530;BME280;34927;37.302;-121.982;2023-04-07T00:56:46;101001.0;;;24.68;31.65
48530;BME280;34927;37.302;-121.982;2023-04-07T00:57:51;101002.0;;;24.72;31.70
48530;BME280;34927;37.302;-121.982;2023-04-07T00:58:57;101005.0;;;24.73;31.94
48530;BME280;34927;37.302;-121.982;2023-04-07T01:00:03;101005.0;;;24.69;31.89
48530;BME280;34927;37.302;-121.982;2023-04-07T01:01:10;101006.0;;;24.65;31.87
48530;BME280;34927;37.302;-121.982;2023-04-07T01:02:20;101007.0;;;24.71;31.84
48530;BME280;34927;37.302;-121.982;2023-04-07T01:03:32;101009.0;;;24.63;32.11
48530;BME280;34927;37.302;-121.982;2023-04-07T01:04:44;101008.0;;;24.70;31.91
48530;BME280;34927;37.302;-121.982;2023-04-07T01:05:53;101010.0;;;24.81;31.76
48530;BME280;34927;37.302;-121.982;2023-04-07T01:07:03;101010.0;;;24.79;31.82
48530;BME280;34927;37.302;-121.982;2023-04-07T01:08:13;101011.0;;;24.85;31.75
48530;BME280;34927;37.302;-121.982;2023-04-07T01:09:26;101010.0;;;24.86;31.65
48530;BME280;34927;37.302;-121.982;2023-04-07T01:10:36;101008.0;;;24.85;31.76
48530;BME280;34927;37.302;-121.982;2023-04-07T01:11:50;101006.0;;;24.73;32.06
48530;BME280;34927;37.302;-121.982;2023-04-07T01:13:05;101003.0;;;24.83;31.89
48530;BME280;34927;37.302;-121.982;2023-04-07T01:14:14;101005.0;;;24.61;32.10
48530;BME280;34927;37.302;-121.982;2023-04-07T01:15:17;101006.0;;;24.68;32.13
48530;BME280;34927;37.302;-121.982;2023-04-07T01:16:26;101009.0;;;24.70;31.93
48530;BME280;34927;37.302;-121.982;2023-04-07T01:17:33;101011.0;;;24.77;31.90
48530;BME280;34927;37.302;-121.982;2023-04-07T01:18:37;101015.0;;;24.72;31.97
48530;BME280;34927;37.302;-121.982;2023-04-07T01:19:46;101016.0;;;24.71;32.17
48530;BME280;34927;37.302;-121.982;2023-04-07T01:20:58;101016.0;;;24.72;32.20
48530;BME280;34927;37.302;-121.982;2023-04-07T01:22:05;101016.0;;;24.86;31.92
48530;BME280;34927;37.302;-121.982;2023-04-07T01:23:22;101016.0;;;24.78;31.90
48530;BME280;34927;37.302;-121.982;2023-04-07T01:24:45;101011.0;;;24.66;32.25
48530;BME280;34927;37.302;-121.982;2023-04-07T01:26:12;101011.0;;;24.80;32.10
48530;BME280;34927;37.302;-121.982;2023-04-07T01:29:48;101010.0;;;24.84;32.02
48530;BME280;34927;37.302;-121.982;2023-04-07T01:30:52;101006.0;;;24.87;31.90
48530;BME280;34927;37.302;-121.982;2023-04-07T01:32:03;101004.0;;;24.85;32.18
48530;BME280;34927;37.302;-121.982;2023-04-07T01:33:08;101005.0;;;24.76;32.38
48530;BME280;34927;37.302;-121.982;2023-04-07T01:34:12;101006.0;;;24.87;32.23
48530;BME280;34927;37.302;-121.982;2023-04-07T01:35:17;101007.0;;;24.84;32.25
48530;BME280;34927;37.302;-121.982;2023-04-07T01:36:23;101009.0;;;24.79;32.22
48530;BME280;34927;37.302;-121.982;2023-04-07T01:37:27;101010.0;;;24.74;32.36
48530;BME280;34927;37.302;-121.982;2023-04-07T01:38:32;101010.0;;;24.62;32.60
48530;BME280;34927;37.302;-121.982;2023-04-07T01:39:38;101009.0;;;24.69;32.78
48530;BME280;34927;37.302;-121.982;2023-04-07T01:40:42;101010.0;;;24.72;32.31
48530;BME280;34927;37.302;-121.982;2023-04-07T01:41:47;101009.0;;;24.75;32.54
48530;BME280;34927;37.302;-121.982;2023-04-07T01:42:52;101006.0;;;24.70;32.55
48530;BME280;34927;37.302;-121.982;2023-04-07T01:43:57;101009.0;;;24.79;32.45
48530;BME280;34927;37.302;-121.982;2023-04-07T01:45:02;101009.0;;;24.85;32.39
48530;BME280;34927;37.302;-121.982;2023-04-07T01:46:07;101010.0;;;24.85;32.39
48530;BME280;34927;37.302;-121.982;2023-04-07T01:47:11;101010.0;;;24.63;32.23
48530;BME280;34927;37.302;-121.982;2023-04-07T01:48:17;101010.0;;;24.52;31.63
48530;BME280;34927;37.302;-121.982;2023-04-07T01:49:22;101012.0;;;24.26;30.93
48530;BME280;34927;37.302;-121.982;2023-04-07T01:50:27;101009.0;;;24.30;30.77
48530;BME280;34927;37.302;-121.982;2023-04-07T01:51:33;101008.0;;;24.23;30.72
48530;BME280;34927;37.302;-121.982;2023-04-07T01:52:37;101005.0;;;24.22;30.81
48530;BME280;34927;37.302;-121.982;2023-04-07T01:53:42;101005.0;;;24.11;30.43
48530;BME280;34927;37.302;-121.982;2023-04-07T01:54:46;101004.0;;;24.11;30.73
48530;BME280;34927;37.302;-121.982;2023-04-07T01:55:53;101008.0;;;24.17;30.54
48530;BME280;34927;37.302;-121.982;2023-04-07T01:56:56;101011.0;;;24.16;30.82
48530;BME280;34927;37.302;-121.982;2023-04-07T01:58:04;101012.0;;;24.16;30.35
48530;BME280;34927;37.302;-121.982;2023-04-07T01:59:06;101012.0;;;24.20;30.38
48530;BME280;34927;37.302;-121.982;2023-04-07T02:00:13;101014.0;;;24.22;30.20
48530;BME280;34927;37.302;-121.982;2023-04-07T02:01:17;101015.0;;;24.04;30.41
48530;BME280;34927;37.302;-121.982;2023-04-07T02:02:22;101016.0;;;24.15;30.35
48530;BME280;34927;37.302;-121.982;2023-04-07T02:03:30;101015.0;;;24.03;30.45
48530;BME280;34927;37.302;-121.982;2023-04-07T02:04:39;101015.0;;;24.09;30.35
48530;BME280;34927;37.302;-121.982;2023-04-07T02:05:47;101013.0;;;24.00;30.41
48530;BME280;34927;37.302;-121.982;2023-04-07T02:06:55;101013.0;;;23.92;30.42
48530;BME280;34927;37.302;-121.982;2023-04-07T02:08:04;101012.0;;;23.95;30.13
48530;BME280;34927;37.302;-121.982;2023-04-07T02:09:15;101010.0;;;23.84;30.27
48530;BME280;34927;37.302;-121.982;2023-04-07T02:10:24;101010.0;;;23.70;30.48
48530;BME280;34927;37.302;-121.982;2023-04-07T02:11:32;101012.0;;;23.71;30.49
48530;BME280;34927;37.302;-121.982;2023-04-07T02:12:37;101012.0;;;23.73;30.34
48530;BME280;34927;37.302;-121.982;2023-04-07T02:13:42;101012.0;;;23.62;30.36
48530;BME280;34927;37.302;-121.982;2023-04-07T02:14:47;101013.0;;;23.60;30.22
48530;BME280;34927;37.302;-121.982;2023-04-07T02:15:53;101014.0;;;23.62;30.17
48530;BME280;34927;37.302;-121.982;2023-04-07T02:16:58;101017.0;;;23.67;30.11
48530;BME280;34927;37.302;-121.982;2023-04-07T02:18:03;101016.0;;;23.63;30.25
48530;BME280;34927;37.302;-121.982;2023-04-07T02:19:07;101017.0;;;23.64;30.02
48530;BME280;34927;37.302;-121.982;2023-04-07T02:20:12;101014.0;;;23.66;30.13
48530;BME280;34927;37.302;-121.982;2023-04-07T02:21:18;101014.0;;;23.53;30.13
48530;BME280;34927;37.302;-121.982;2023-04-07T02:22:21;101015.0;;;23.58;29.95
48530;BME280;34927;37.302;-121.982;2023-04-07T02:23:33;101011.0;;;23.62;29.95
48530;BME280;34927;37.302;-121.982;2023-04-07T02:24:40;101011.0;;;23.57;29.94
48530;BME280;34927;37.302;-121.982;2023-04-07T02:25:46;101009.0;;;23.60;29.93
48530;BME280;34927;37.302;-121.982;2023-04-07T02:26:51;101007.0;;;23.64;29.83
48530;BME280;34927;37.302;-121.982;2023-04-07T02:27:58;101007.0;;;23.61;29.78
48530;BME280;34927;37.302;-121.982;2023-04-07T02:29:02;101007.0;;;23.47;29.92
48530;BME280;34927;37.302;-121.982;2023-04-07T02:30:09;101007.0;;;23.43;30.01
48530;BME280;34927;37.302;-121.982;2023-04-07T02:31:11;101010.0;;;23.47;29.88
48530;BME280;34927;37.302;-121.982;2023-04-07T02:32:16;101011.0;;;23.51;29.89
48530;BME280;34927;37.302;-121.982;2023-04-07T02:33:22;101013.0;;;23.44;29.90
48530;BME280;34927;37.302;-121.982;2023-04-07T02:34:26;101014.0;;;23.39;29.89
48530;BME280;34927;37.302;-121.982;2023-04-07T02:35:32;101012.0;;;23.43;29.87
48530;BME280;34927;37.302;-121.982;2023-04-07T02:36:36;101013.0;;;23.36;29.98
48530;BME280;34927;37.302;-121.982;2023-04-07T02:37:42;101015.0;;;23.33;29.98
48530;BME280;34927;37.302;-121.982;2023-04-07T02:38:47;101013.0;;;23.45;29.87
48530;BME280;34927;37.302;-121.982;2023-04-07T02:39:52;101017.0;;;23.23;30.14
48530;BME280;34927;37.302;-121.982;2023-04-07T02:40:56;101018.0;;;23.34;29.99
48530;BME280;34927;37.302;-121.982;2023-04-07T02:42:02;101018.0;;;23.29;30.04
48530;BME280;34927;37.302;-121.982;2023-04-07T02:43:07;101022.0;;;23.17;30.19
48530;BME280;34927;37.302;-121.982;2023-04-07T02:44:12;101022.0;;;23.07;30.29
48530;BME280;34927;37.302;-121.982;2023-04-07T02:45:16;101021.0;;;23.08;30.28
48530;BME280;34927;37.302;-121.982;2023-04-07T02:46:22;101023.0;;;23.00;30.46
48530;BME280;34927;37.302;-121.982;2023-04-07T02:47:27;101022.0;;;22.90;30.58
48530;BME280;34927;37.302;-121.982;2023-04-07T02:48:31;101019.0;;;22.96;30.46
48530;BME280;34927;37.302;-121.982;2023-04-07T02:49:37;101017.0;;;22.91;30.58
48530;BME280;34927;37.302;-121.982;2023-04-07T02:50:42;101017.0;;;22.84;30.60
48530;BME280;34927;37.302;-121.982;2023-04-07T02:51:46;101013.0;;;22.91;30.61
48530;BME280;34927;37.302;-121.982;2023-04-07T02:52:51;101013.0;;;22.97;30.54
48530;BME280;34927;37.302;-121.982;2023-04-07T02:53:57;101008.0;;;22.99;30.47
48530;BME280;34927;37.302;-121.982;2023-04-07T02:55:07;101007.0;;;22.86;30.66
48530;BME280;34927;37.302;-121.982;2023-04-07T02:56:11;101005.0;;;22.91;30.55
48530;BME280;34927;37.302;-121.982;2023-04-07T02:57:16;101002.0;;;22.92;30.62
48530;BME280;34927;37.302;-121.982;2023-04-07T02:58:23;101002.0;;;22.93;30.60
48530;BME280;34927;37.302;-121.982;2023-04-07T02:59:26;100997.0;;;22.96;30.68
48530;BME280;34927;37.302;-121.982;2023-04-07T03:00:33;100998.0;;;22.98;30.53
48530;BME280;34927;37.302;-121.982;2023-04-07T03:01:36;100995.0;;;22.96;30.54
48530;BME280;34927;37.302;-121.982;2023-04-07T03:02:41;100995.0;;;22.96;30.61
48530;BME280;34927;37.302;-121.982;2023-04-07T03:03:47;100991.0;;;22.96;30.56
48530;BME280;34927;37.302;-121.982;2023-04-07T03:04:52;100988.0;;;22.97;30.58
48530;BME280;34927;37.302;-121.982;2023-04-07T03:05:57;100982.0;;;22.90;30.65
48530;BME280;34927;37.302;-121.982;2023-04-07T03:07:02;100978.0;;;22.89;30.69
48530;BME280;34927;37.302;-121.982;2023-04-07T03:08:08;100977.0;;;22.93;30.61
48530;BME280;34927;37.302;-121.982;2023-04-07T03:09:12;100976.0;;;22.90;30.65
48530;BME280;34927;37.302;-121.982;2023-04-07T03:10:17;100976.0;;;22.92;30.58
48530;BME280;34927;37.302;-121.982;2023-04-07T03:11:21;100976.0;;;22.90;30.66
48530;BME280;34927;37.302;-121.982;2023-04-07T03:12:27;100977.0;;;22.91;30.63
48530;BME280;34927;37.302;-121.982;2023-04-07T03:13:32;100976.0;;;22.91;30.65
48530;BME280;34927;37.302;-121.982;2023-04-07T03:14:36;100977.0;;;22.83;30.68
48530;BME280;34927;37.302;-121.982;2023-04-07T03:15:42;100978.0;;;22.89;30.66
48530;BME280;34927;37.302;-121.982;2023-04-07T03:16:47;100976.0;;;22.82;30.71
48530;BME280;34927;37.302;-121.982;2023-04-07T03:17:52;100975.0;;;22.80;30.71
48530;BME280;34927;37.302;-121.982;2023-04-07T03:18:57;100973.0;;;22.78;30.78
48530;BME280;34927;37.302;-121.982;2023-04-07T03:20:01;100970.0;;;22.80;30.70
48530;BME280;34927;37.302;-121.982;2023-04-07T03:21:06;100970.0;;;22.88;30.53
48530;BME280;34927;37.302;-121.982;2023-04-07T03:22:11;100966.0;;;22.83;30.58
48530;BME280;34927;37.302;-121.982;2023-04-07T03:23:21;100967.0;;;22.77;30.71
48530;BME280;34927;37.302;-121.982;2023-04-07T03:24:27;100966.0;;;22.76;30.68
48530;BME280;34927;37.302;-121.982;2023-04-07T03:25:32;100967.0;;;22.76;30.66
48530;BME280;34927;37.302;-121.982;2023-04-07T03:26:37;100972.0;;;22.80;30.62
48530;BME280;34927;37.302;-121.982;2023-04-07T03:27:42;100977.0;;;22.77;30.68
48530;BME280;34927;37.302;-121.982;2023-04-07T03:28:51;100980.0;;;22.68;30.77
48530;BME280;34927;37.302;-121.982;2023-04-07T03:29:56;100983.0;;;22.70;30.76
48530;BME280;34927;37.302;-121.982;2023-04-07T03:31:01;100986.0;;;22.65;30.79
48530;BME280;34927;37.302;-121.982;2023-04-07T03:32:06;100989.0;;;22.70;30.76
48530;BME280;34927;37.302;-121.982;2023-04-07T03:33:11;100993.0;;;22.82;30.59
48530;BME280;34927;37.302;-121.982;2023-04-07T03:34:16;100993.0;;;22.74;30.66
48530;BME280;34927;37.302;-121.982;2023-04-07T03:35:21;100990.0;;;22.68;30.77
48530;BME280;34927;37.302;-121.982;2023-04-07T03:36:27;100992.0;;;22.85;30.79
48530;BME280;34927;37.302;-121.982;2023-04-07T03:37:31;100990.0;;;22.68;31.34
48530;BME280;34927;37.302;-121.982;2023-04-07T03:38:37;100992.0;;;22.74;31.18
48530;BME280;34927;37.302;-121.982;2023-04-07T03:39:42;100996.0;;;22.83;31.35
48530;BME280;34927;37.302;-121.982;2023-04-07T03:40:47;100996.0;;;22.72;31.65
48530;BME280;34927;37.302;-121.982;2023-04-07T03:41:52;100997.0;;;22.67;31.83
48530;BME280;34927;37.302;-121.982;2023-04-07T03:42:57;101001.0;;;22.62;32.09
48530;BME280;34927;37.302;-121.982;2023-04-07T03:44:02;101005.0;;;22.68;31.92
48530;BME280;34927;37.302;-121.982;2023-04-07T03:45:08;101010.0;;;22.61;32.18
48530;BME280;34927;37.302;-121.982;2023-04-07T03:46:11;101011.0;;;22.64;32.09
48530;BME280;34927;37.302;-121.982;2023-04-07T03:47:16;101011.0;;;22.65;32.31
48530;BME280;34927;37.302;-121.982;2023-04-07T03:48:22;101012.0;;;22.70;32.08
48530;BME280;34927;37.302;-121.982;2023-04-07T03:49:27;101016.0;;;22.56;32.41
48530;BME280;34927;37.302;-121.982;2023-04-07T03:50:31;101015.0;;;22.63;32.44
48530;BME280;34927;37.302;-121.982;2023-04-07T03:51:36;101013.0;;;22.56;32.47
48530;BME280;34927;37.302;-121.982;2023-04-07T03:52:41;101011.0;;;22.55;32.44
48530;BME280;34927;37.302;-121.982;2023-04-07T03:53:46;101012.0;;;22.53;32.48
48530;BME280;34927;37.302;-121.982;2023-04-07T03:54:51;101011.0;;;22.52;32.50
48530;BME280;34927;37.302;-121.982;2023-04-07T03:55:56;101010.0;;;22.52;32.40
48530;BME280;34927;37.302;-121.982;2023-04-07T03:57:01;101012.0;;;22.41;32.63
48530;BME280;34927;37.302;-121.982;2023-04-07T03:58:08;101013.0;;;22.45;32.66
48530;BME280;34927;37.302;-121.982;2023-04-07T03:59:12;101013.0;;;22.40;32.77
48530;BME280;34927;37.302;-121.982;2023-04-07T04:00:17;101015.0;;;22.65;32.17
48530;BME280;34927;37.302;-121.982;2023-04-07T04:01:22;101022.0;;;22.65;32.29
48530;BME280;34927;37.302;-121.982;2023-04-07T04:02:27;101026.0;;;22.57;32.42
48530;BME280;34927;37.302;-121.982;2023-04-07T04:03:32;101029.0;;;22.62;32.22
48530;BME280;34927;37.302;-121.982;2023-04-07T04:04:37;101035.0;;;22.81;32.13
48530;BME280;34927;37.302;-121.982;2023-04-07T04:05:42;101033.0;;;22.58;32.53
48530;BME280;34927;37.302;-121.982;2023-04-07T04:06:47;101038.0;;;22.89;31.96
48530;BME280;34927;37.302;-121.982;2023-04-07T04:07:52;101039.0;;;22.80;32.02
48530;BME280;34927;37.302;-121.982;2023-04-07T04:08:57;101041.0;;;22.77;32.17
48530;BME280;34927;37.302;-121.982;2023-04-07T04:10:01;101043.0;;;22.78;32.00
48530;BME280;34927;37.302;-121.982;2023-04-07T04:11:07;101044.0;;;22.82;31.94
48530;BME280;34927;37.302;-121.982;2023-04-07T04:12:11;101045.0;;;22.80;31.93
48530;BME280;34927;37.302;-121.982;2023-04-07T04:13:16;101043.0;;;22.76;32.01
48530;BME280;34927;37.302;-121.982;2023-04-07T04:14:21;101043.0;;;22.64;32.23
48530;BME280;34927;37.302;-121.982;2023-04-07T04:15:27;101040.0;;;22.61;32.34
48530;BME280;34927;37.302;-121.982;2023-04-07T04:16:32;101042.0;;;22.63;32.43
48530;BME280;34927;37.302;-121.982;2023-04-07T04:17:37;101045.0;;;22.63;32.54
48530;BME280;34927;37.302;-121.982;2023-04-07T04:18:42;101048.0;;;22.66;32.25
48530;BME280;34927;37.302;-121.982;2023-04-07T04:19:47;101045.0;;;22.73;32.07
48530;BME280;34927;37.302;-121.982;2023-04-07T04:20:52;101044.0;;;22.76;31.92
48530;BME280;34927;37.302;-121.982;2023-04-07T04:21:58;101040.0;;;22.59;32.37
48530;BME280;34927;37.302;-121.982;2023-04-07T04:23:01;101040.0;;;22.70;32.07
48530;BME280;34927;37.302;-121.982;2023-04-07T04:24:07;101038.0;;;22.69;32.19
48530;BME280;34927;37.302;-121.982;2023-04-07T04:25:12;101041.0;;;22.60;32.56
48530;BME280;34927;37.302;-121.982;2023-04-07T04:26:16;101042.0;;;22.77;32.25
48530;BME280;34927;37.302;-121.982;2023-04-07T04:27:22;101040.0;;;22.89;32.04
48530;BME280;34927;37.302;-121.982;2023-04-07T04:28:26;101036.0;;;22.99;31.95
48530;BME280;34927;37.302;-121.982;2023-04-07T04:29:32;101039.0;;;23.01;31.82
48530;BME280;34927;37.302;-121.982;2023-04-07T04:30:36;101047.0;;;22.82;32.17
48530;BME280;34927;37.302;-121.982;2023-04-07T04:31:41;101049.0;;;22.95;32.01
48530;BME280;34927;37.302;-121.982;2023-04-07T04:32:46;101055.0;;;22.58;32.68
48530;BME280;34927;37.302;-121.982;2023-04-07T04:33:51;101058.0;;;22.62;32.55
48530;BME280;34927;37.302;-121.982;2023-04-07T04:34:57;101060.0;;;22.79;32.08
48530;BME280;34927;37.302;-121.982;2023-04-07T04:36:02;101062.0;;;22.83;31.89
48530;BME280;34927;37.302;-121.982;2023-04-07T04:37:07;101061.0;;;22.64;32.27
48530;BME280;34927;37.302;-121.982;2023-04-07T04:38:12;101059.0;;;22.70;32.10
48530;BME280;34927;37.302;-121.982;2023-04-07T04:39:16;101060.0;;;22.67;32.25
48530;BME280;34927;37.302;-121.982;2023-04-07T04:40:21;101066.0;;;22.65;32.22
48530;BME280;34927;37.302;-121.982;2023-04-07T04:41:27;101069.0;;;22.56;32.37
48530;BME280;34927;37.302;-121.982;2023-04-07T04:42:32;101072.0;;;22.69;32.16
48530;BME280;34927;37.302;-121.982;2023-04-07T04:43:37;101075.0;;;22.65;32.32
48530;BME280;34927;37.302;-121.982;2023-04-07T04:44:42;101071.0;;;22.83;32.08
48530;BME280;34927;37.302;-121.982;2023-04-07T04:45:47;101068.0;;;22.76;32.09
48530;BME280;34927;37.302;-121.982;2023-04-07T04:46:51;101069.0;;;22.65;32.20
48530;BME280;34927;37.302;-121.982;2023-04-07T04:47:56;101070.0;;;22.52;32.34
48530;BME280;34927;37.302;-121.982;2023-04-07T04:49:01;101069.0;;;22.64;32.11
48530;BME280;34927;37.302;-121.982;2023-04-07T04:50:08;101062.0;;;22.77;31.93
48530;BME280;34927;37.302;-121.982;2023-04-07T04:51:11;101063.0;;;22.54;32.25
48530;BME280;34927;37.302;-121.982;2023-04-07T04:52:17;101059.0;;;22.73;31.95
48530;BME280;34927;37.302;-121.982;2023-04-07T04:53:21;101061.0;;;22.77;31.93
48530;BME280;34927;37.302;-121.982;2023-04-07T04:54:26;101061.0;;;22.72;31.94
48530;BME280;34927;37.302;-121.982;2023-04-07T04:55:31;101061.0;;;22.71;32.00
48530;BME280;34927;37.302;-121.982;2023-04-07T04:56:36;101066.0;;;22.59;32.17
48530;BME280;34927;37.302;-121.982;2023-04-07T04:57:42;101065.0;;;22.68;32.13
48530;BME280;34927;37.302;-121.982;2023-04-07T04:58:47;101065.0;;;22.76;31.94
48530;BME280;34927;37.302;-121.982;2023-04-07T04:59:53;101066.0;;;22.69;31.95
48530;BME280;34927;37.302;-121.982;2023-04-07T05:00:56;101066.0;;;22.54;32.12
48530;BME280;34927;37.302;-121.982;2023-04-07T05:02:02;101063.0;;;22.53;32.19
48530;BME280;34927;37.302;-121.982;2023-04-07T05:03:10;101057.0;;;22.74;31.77
48530;BME280;34927;37.302;-121.982;2023-04-07T05:04:12;101054.0;;;22.70;31.87
48530;BME280;34927;37.302;-121.982;2023-04-07T05:05:17;101053.0;;;22.46;32.13
48530;BME280;34927;37.302;-121.982;2023-04-07T05:06:22;101052.0;;;22.43;32.23
48530;BME280;34927;37.302;-121.982;2023-04-07T05:07:26;101051.0;;;22.43;32.28
48530;BME280;34927;37.302;-121.982;2023-04-07T05:08:32;101054.0;;;22.40;32.35
48530;BME280;34927;37.302;-121.982;2023-04-07T05:09:38;101056.0;;;22.55;32.04
48530;BME280;34927;37.302;-121.982;2023-04-07T05:10:42;101056.0;;;22.49;32.16
48530;BME280;34927;37.302;-121.982;2023-04-07T05:11:47;101056.0;;;22.55;32.16
48530;BME280;34927;37.302;-121.982;2023-04-07T05:12:52;101056.0;;;22.54;32.10
48530;BME280;34927;37.302;-121.982;2023-04-07T05:13:57;101060.0;;;22.59;32.00
48530;BME280;34927;37.302;-121.982;2023-04-07T05:15:02;101060.0;;;22.40;32.26
48530;BME280;34927;37.302;-121.982;2023-04-07T05:16:08;101060.0;;;22.41;32.51
48530;BME280;34927;37.302;-121.982;2023-04-07T05:17:12;101062.0;;;22.32;32.63
48530;BME280;34927;37.302;-121.982;2023-04-07T05:18:16;101060.0;;;22.55;32.24
48530;BME280;34927;37.302;-121.982;2023-04-07T05:19:21;101059.0;;;22.52;32.17
48530;BME280;34927;37.302;-121.982;2023-04-07T05:20:26;101056.0;;;22.38;32.63
48530;BME280;34927;37.302;-121.982;2023-04-07T05:21:31;101058.0;;;22.34;32.73
48530;BME280;34927;37.302;-121.982;2023-04-07T05:22:37;101059.0;;;22.41;32.72
48530;BME280;34927;37.302;-121.982;2023-04-07T05:23:42;101057.0;;;22.42;32.65
48530;BME280;34927;37.302;-121.982;2023-04-07T05:24:47;101059.0;;;22.22;33.25
48530;BME280;34927;37.302;-121.982;2023-04-07T05:25:52;101059.0;;;22.24;33.14
48530;BME280;34927;37.302;-121.982;2023-04-07T05:26:57;101056.0;;;22.33;33.02
48530;BME280;34927;37.302;-121.982;2023-04-07T05:28:01;101057.0;;;22.24;33.22
48530;BME280;34927;37.302;-121.982;2023-04-07T05:29:06;101057.0;;;22.16;33.43
48530;BME280;34927;37.302;-121.982;2023-04-07T05:30:13;101051.0;;;22.28;33.13
48530;BME280;34927;37.302;-121.982;2023-04-07T05:31:16;101049.0;;;22.36;32.92
48530;BME280;34927;37.302;-121.982;2023-04-07T05:32:22;101047.0;;;22.45;32.59
48530;BME280;34927;37.302;-121.982;2023-04-07T05:33:26;101046.0;;;22.43;32.66
48530;BME280;34927;37.302;-121.982;2023-04-07T05:34:31;101046.0;;;22.22;33.01
48530;BME280;34927;37.302;-121.982;2023-04-07T05:35:36;101043.0;;;22.26;32.79
48530;BME280;34927;37.302;-121.982;2023-04-07T05:36:42;101041.0;;;22.24;32.82